Time;durP1;ratioP1;P1;durP2;ratioP2;P2;SDS_P1;SDS_P2;PMS_P1;PMS_P2;Temp;Humidity;BMP_temperature;BMP_pressure;BME280_temperature;BME280_humidity;BME280_pressure;Samples;Min_cycle;Max_cycle;Signal;HPM_P1;HPM_P2
2023/01/23 00:02:15;;;;;;;27.40;15.30;;;;;;;6.70;100.00;102014.25;107747;1259;73533;-91
2023/01/23 00:04:42;;;;;;;27.90;14.10;;;;;;;7.11;100.00;102011.95;107854;1259;61451;-91
2023/01/23 00:07:13;;;;;;;29.30;15.20;;;;;;;7.05;100.00;102012.44;107846;1259;61560;-91
2023/01/23 00:09:39;;;;;;;32.30;14.30;;;;;;;6.83;100.00;102013.15;107819;1259;74204;-91
2023/01/23 00:12:07;;;;;;;33.30;15.20;;;;;;;6.67;100.00;102014.91;107747;1259;71392;-91
2023/01/23 00:14:40;;;;;;;38.30;16.70;;;;;;;6.80;100.00;102013.63;107998;1259;72512;-91
2023/01/23 00:17:27;;;;;;;30.40;14.90;;;;;;;7.13;100.00;102015.82;108790;1259;60164;-89
2023/01/23 00:20:24;;;;;;;25.40;13.50;;;;;;;7.21;100.00;102012.38;108822;1259;61473;-89
2023/01/23 00:23:00;;;;;;;31.00;14.30;;;;;;;7.04;100.00;102006.33;108793;1259;74055;-91
2023/01/23 00:25:52;;;;;;;23.40;12.90;;;;;;;6.94;100.00;102005.53;108859;1257;71322;-89
2023/01/23 00:28:56;;;;;;;24.10;12.20;;;;;;;7.33;100.00;102006.69;108662;1257;72432;-90
2023/01/23 00:32:35;;;;;;;26.40;13.10;;;;;;;7.30;100.00;102006.50;108770;1256;60799;-90
2023/01/23 00:35:09;;;;;;;20.20;11.40;;;;;;;6.88;100.00;102006.54;108417;1257;59284;-91
2023/01/23 00:37:36;;;;;;;26.80;12.60;;;;;;;7.08;100.00;102010.90;108023;1257;72336;-92
2023/01/23 00:40:03;;;;;;;23.90;12.20;;;;;;;7.20;100.00;102016.39;108024;1257;69377;-90
2023/01/23 00:42:31;;;;;;;17.80;9.50;;;;;;;7.29;100.00;102016.98;108215;1254;70811;-89
2023/01/23 00:44:59;;;;;;;20.30;10.20;;;;;;;7.11;100.00;102018.95;108282;1254;61476;-92
2023/01/23 00:47:26;;;;;;;19.00;10.00;;;;;;;6.98;100.00;102014.66;108253;1254;59766;-91
2023/01/23 00:50:08;;;;;;;19.60;10.00;;;;;;;7.15;100.00;102014.09;108036;1254;71947;-91
2023/01/23 00:52:37;;;;;;;19.70;10.20;;;;;;;7.19;100.00;102019.18;108435;1257;71731;-91
2023/01/23 00:55:05;;;;;;;19.30;10.80;;;;;;;7.47;98.00;102021.11;108329;1256;71629;-92
2023/01/23 00:57:34;;;;;;;18.30;10.00;;;;;;;7.22;89.25;102013.79;108406;1254;61158;-89
2023/01/23 01:00:03;;;;;;;20.20;10.10;;;;;;;7.16;88.51;102016.38;108331;1254;60569;-88
2023/01/23 01:02:31;;;;;;;20.20;10.70;;;;;;;7.30;87.63;102012.96;108471;1257;73094;-90
2023/01/23 01:04:57;;;;;;;19.00;10.50;;;;;;;7.53;85.89;102015.54;108200;1253;71322;-91
2023/01/23 01:07:30;;;;;;;19.00;10.20;;;;;;;7.35;86.23;102015.97;108160;1253;73934;-91
2023/01/23 01:09:57;;;;;;;18.40;10.00;;;;;;;7.36;86.03;102012.83;108250;1253;60860;-93
2023/01/23 01:12:24;;;;;;;16.20;8.50;;;;;;;7.41;85.95;102012.52;108126;1253;61331;-90
2023/01/23 01:14:52;;;;;;;18.90;10.00;;;;;;;7.33;86.00;102015.44;108134;1253;71380;-90
2023/01/23 01:17:19;;;;;;;18.50;9.60;;;;;;;7.53;85.31;102014.15;108275;1253;71432;-88
2023/01/23 01:19:47;;;;;;;20.00;10.60;;;;;;;7.56;85.25;102016.45;108314;1253;73628;-89
2023/01/23 01:22:14;;;;;;;20.30;10.00;;;;;;;7.49;85.31;102013.42;108469;1253;59214;-88
2023/01/23 01:24:41;;;;;;;18.50;9.40;;;;;;;7.60;84.53;102014.20;108225;1253;60326;-89
2023/01/23 01:27:08;;;;;;;21.60;10.70;;;;;;;7.58;69.97;102013.83;108073;1253;72877;-89
2023/01/23 01:29:34;;;;;;;19.20;10.40;;;;;;;7.59;69.18;102012.97;107993;1253;71559;-91
2023/01/23 01:32:01;;;;;;;20.20;10.20;;;;;;;7.40;69.68;102015.64;107971;1253;73375;-90
2023/01/23 01:34:28;;;;;;;20.70;11.20;;;;;;;7.29;69.92;102013.14;108163;1257;61018;-93
2023/01/23 01:36:54;;;;;;;22.20;10.30;;;;;;;7.58;69.20;102011.20;108183;1253;61355;-91
2023/01/23 01:39:21;;;;;;;21.20;10.70;;;;;;;7.68;68.56;102007.23;108152;1253;72778;-91
2023/01/23 01:41:48;;;;;;;20.90;10.30;;;;;;;7.61;68.76;102007.03;108093;1253;69324;-91
2023/01/23 01:44:20;;;;;;;22.50;11.10;;;;;;;7.50;68.91;102005.05;109333;1253;71685;-91
2023/01/23 01:46:48;;;;;;;21.60;10.50;;;;;;;7.33;69.04;102002.51;109215;1253;60194;-91
2023/01/23 01:49:20;;;;;;;23.50;11.30;;;;;;;7.35;69.42;102001.81;109243;1253;59369;-91
2023/01/23 01:51:52;;;;;;;18.40;10.10;;;;;;;7.07;70.08;102000.92;109327;1253;70868;-91
2023/01/23 01:54:19;;;;;;;28.00;11.10;;;;;;;7.31;69.53;102001.09;109490;1253;69427;-90
2023/01/23 01:57:07;;;;;;;20.30;10.00;;;;;;;7.30;69.43;101999.69;109300;1254;71527;-89
2023/01/23 01:59:41;;;;;;;21.80;11.00;;;;;;;7.40;68.96;101997.65;109297;1253;61614;-91
2023/01/23 02:02:13;;;;;;;21.90;10.70;;;;;;;7.21;69.28;101994.73;109371;1254;60100;-91
2023/01/23 04:06:51;;;;;;;59.80;21.50;;;;;;;0.55;100.00;102040.36;104876;1293;599836;-90
2023/01/23 04:09:24;;;;;;;53.00;20.40;;;;;;;3.10;100.00;102037.29;107244;1267;63361;-92
2023/01/23 04:11:54;;;;;;;52.40;20.50;;;;;;;3.83;100.00;102037.21;107661;1265;61196;-90
2023/01/23 04:14:48;;;;;;;53.30;18.90;;;;;;;4.24;100.00;102039.44;107592;1267;74272;-90
2023/01/23 04:17:17;;;;;;;46.20;17.10;;;;;;;4.54;100.00;102034.45;107381;1267;69487;-90
2023/01/23 04:19:44;;;;;;;47.60;18.80;;;;;;;4.67;100.00;102034.16;107359;1261;155393;-90
2023/01/23 04:22:12;;;;;;;42.60;18.10;;;;;;;5.11;100.00;102030.53;107530;1262;62855;-89
2023/01/23 04:24:45;;;;;;;47.70;17.80;;;;;;;5.38;100.00;102033.56;107719;1260;61832;-89
2023/01/23 04:27:17;;;;;;;41.90;16.80;;;;;;;5.63;100.00;102036.90;107918;1260;74339;-90
2023/01/23 04:29:53;;;;;;;43.40;17.70;;;;;;;5.65;100.00;102034.99;108049;1261;71365;-90
2023/01/23 04:32:21;;;;;;;40.80;17.60;;;;;;;5.58;100.00;102041.70;108280;1259;73703;-90
2023/01/23 04:34:51;;;;;;;39.10;15.60;;;;;;;5.67;100.00;102041.46;108900;1259;62096;-91
2023/01/23 04:37:18;;;;;;;37.90;16.10;;;;;;;5.89;100.00;102041.77;108967;1260;61280;-91
2023/01/23 04:39:45;;;;;;;38.70;14.90;;;;;;;6.10;100.00;102043.80;108893;1259;74540;-90
2023/01/23 04:42:13;;;;;;;38.90;17.00;;;;;;;6.01;100.00;102045.77;108905;1260;71084;-91
2023/01/23 04:45:04;;;;;;;35.60;16.00;;;;;;;6.00;100.00;102047.16;107862;1259;73552;-89
2023/01/23 04:47:46;;;;;;;37.00;13.90;;;;;;;6.40;100.00;102045.70;107796;1260;62491;-90
2023/01/23 04:50:14;;;;;;;35.30;14.00;;;;;;;6.51;100.00;102043.91;107917;1254;61318;-91
2023/01/23 04:52:43;;;;;;;27.00;12.50;;;;;;;6.19;100.00;102045.45;108007;1254;74259;-91
2023/01/23 04:55:10;;;;;;;34.10;14.60;;;;;;;6.23;100.00;102046.73;108117;1254;71012;-89
2023/01/23 04:57:52;;;;;;;33.80;14.30;;;;;;;6.43;100.00;102049.76;108192;1254;73520;-91
2023/01/23 05:00:28;;;;;;;30.50;13.80;;;;;;;6.25;100.00;102053.39;108023;1254;62925;-90
2023/01/23 05:02:56;;;;;;;30.20;13.40;;;;;;;6.29;100.00;102054.30;108170;1254;61158;-90
2023/01/23 05:05:25;;;;;;;38.20;17.10;;;;;;;6.52;100.00;102050.91;107994;1254;75577;-90
2023/01/23 05:07:57;;;;;;;40.70;19.40;;;;;;;6.54;100.00;102054.92;108174;1254;69606;-90
2023/01/23 05:10:25;;;;;;;46.70;22.00;;;;;;;6.75;100.00;102056.36;108043;1254;74620;-90
2023/01/23 05:13:11;;;;;;;43.90;18.60;;;;;;;6.91;100.00;102053.72;108961;1251;61916;-89
2023/01/23 05:15:50;;;;;;;44.80;20.60;;;;;;;6.93;100.00;102060.20;109128;1251;62240;-90
2023/01/23 05:18:21;;;;;;;36.60;16.70;;;;;;;6.55;100.00;102064.89;108145;1250;71960;-91
2023/01/23 05:24:02;;;;;;;39.70;19.20;;;;;;;6.89;100.00;102077.80;109216;1251;73485;-90
2023/01/23 05:26:31;;;;;;;35.10;16.20;;;;;;;6.90;100.00;102078.85;108892;1250;61916;-90
2023/01/23 05:28:58;;;;;;;31.00;14.90;;;;;;;6.97;100.00;102082.06;108439;1251;60133;-90
2023/01/23 05:31:30;;;;;;;53.40;27.40;;;;;;;7.21;100.00;102080.16;108876;1250;73683;-91
2023/01/23 05:35:01;;;;;;;36.50;18.30;;;;;;;7.33;100.00;102080.61;108374;1251;69159;-90
2023/01/23 05:37:35;;;;;;;42.50;20.30;;;;;;;7.54;100.00;102085.65;108247;1251;74776;-91
2023/01/23 05:40:07;;;;;;;51.50;26.50;;;;;;;7.38;100.00;102086.06;108538;1251;63549;-91
2023/01/23 05:42:55;;;;;;;44.60;20.10;;;;;;;7.45;100.00;102088.39;108966;1251;61406;-90
2023/01/23 05:45:43;;;;;;;30.60;14.50;;;;;;;7.41;100.00;102084.33;108530;1250;72519;-92
2023/01/23 05:48:25;;;;;;;28.30;13.90;;;;;;;7.18;100.00;102086.26;108459;1251;71761;-90
2023/01/23 05:50:52;;;;;;;26.90;13.50;;;;;;;7.23;100.00;102086.29;108528;1251;73565;-89
2023/01/23 05:53:22;;;;;;;28.70;13.30;;;;;;;7.18;100.00;102087.30;108721;1251;62203;-88
2023/01/23 05:55:49;;;;;;;43.10;17.90;;;;;;;7.25;100.00;102086.48;108742;1251;62435;-91
2023/01/23 05:58:16;;;;;;;58.70;22.40;;;;;;;7.09;100.00;102091.41;109027;1250;71552;-90
2023/01/23 06:01:04;;;;;;;37.60;16.00;;;;;;;7.32;98.52;102091.61;109340;1251;71366;-90
2023/01/23 06:03:50;;;;;;;39.40;16.90;;;;;;;7.40;91.02;102094.48;109194;1251;70482;-90
2023/01/23 06:06:33;;;;;;;40.80;17.30;;;;;;;7.33;90.49;102099.48;109204;1251;61814;-86
2023/01/23 06:09:00;;;;;;;29.10;15.10;;;;;;;7.14;91.19;102098.80;109345;1251;61828;-88
2023/01/23 06:11:38;;;;;;;61.10;21.50;;;;;;;7.05;91.32;102099.24;109597;1251;72674;-88
2023/01/23 06:14:09;;;;;;;59.20;21.90;;;;;;;7.06;90.75;102100.82;109450;1251;71359;-89
2023/01/23 06:16:36;;;;;;;55.30;21.70;;;;;;;7.22;89.29;102103.40;109324;1251;73527;-91
2023/01/23 06:19:04;;;;;;;64.40;25.90;;;;;;;7.28;88.76;102105.73;109524;1251;62152;-90
2023/01/23 06:21:32;;;;;;;43.60;18.50;;;;;;;7.02;89.83;102106.20;109399;1251;61414;-92
2023/01/23 06:24:02;;;;;;;46.20;18.40;;;;;;;7.20;89.17;102106.89;109157;1251;72377;-91
2023/01/23 06:26:29;;;;;;;85.60;31.80;;;;;;;7.11;89.43;102108.20;109323;1251;71580;-91
2023/01/23 06:28:57;;;;;;;43.40;20.10;;;;;;;7.35;88.81;102110.15;108983;1251;74128;-90
2023/01/23 06:31:25;;;;;;;103.20;33.10;;;;;;;7.20;89.38;102113.35;108875;1254;62444;-91
2023/01/23 06:33:53;;;;;;;105.50;27.70;;;;;;;7.28;89.05;102112.20;109462;1251;60057;-91
2023/01/23 06:36:25;;;;;;;44.00;15.90;;;;;;;7.22;88.94;102114.41;109370;1253;74945;-91
2023/01/23 06:38:52;;;;;;;57.20;18.60;;;;;;;7.20;88.99;102114.75;109281;1251;70694;-92
2023/01/23 06:41:23;;;;;;;33.10;13.70;;;;;;;7.26;88.76;102118.12;109377;1251;73676;-91
2023/01/23 06:43:53;;;;;;;44.20;15.80;;;;;;;7.39;88.10;102115.95;109370;1251;62142;-91
2023/01/23 06:46:34;;;;;;;32.00;12.60;;;;;;;7.51;87.51;102116.55;109003;1251;59137;-91
2023/01/23 06:49:02;;;;;;;62.50;23.10;;;;;;;7.47;87.65;102117.77;108476;1251;74150;-91
2023/01/23 06:51:35;;;;;;;164.40;64.30;;;;;;;7.46;87.76;102121.60;108407;1255;69353;-91
2023/01/23 06:54:02;;;;;;;84.30;29.00;;;;;;;7.59;73.90;102127.64;108441;1251;73861;-92
2023/01/23 06:56:29;;;;;;;32.40;13.70;;;;;;;7.54;73.07;102126.73;108446;1251;62498;-91
2023/01/23 06:58:57;;;;;;;36.40;15.30;;;;;;;7.31;71.95;102130.92;108417;1251;62600;-91
2023/01/23 07:01:28;;;;;;;;;;;;;;;7.34;71.47;102126.41;108437;1251;74929;-91
2023/01/23 07:04:14;;;;;;;35.20;12.60;;;;;;;7.01;72.16;102130.82;108469;1251;71091;-92
2023/01/23 07:06:42;;;;;;;31.10;13.20;;;;;;;6.93;72.66;102131.42;108497;1251;72839;-91
2023/01/23 07:09:10;;;;;;;28.00;12.70;;;;;;;7.03;72.68;102135.37;108277;1252;62324;-91
2023/01/23 07:11:38;;;;;;;56.20;29.10;;;;;;;7.20;72.28;102139.91;108508;1251;61663;-90
2023/01/23 07:14:06;;;;;;;57.90;20.50;;;;;;;7.15;72.02;102141.09;108321;1251;74023;-91
2023/01/23 07:16:34;;;;;;;81.80;20.60;;;;;;;7.29;71.53;102140.52;108448;1251;71219;-91
2023/01/23 07:19:04;;;;;;;48.80;17.30;;;;;;;7.07;72.09;102142.41;108626;1251;74713;-90
2023/01/23 07:21:33;;;;;;;52.90;17.40;;;;;;;7.00;71.90;102142.33;108814;1251;61730;-91
2023/01/23 07:24:01;;;;;;;44.50;15.30;;;;;;;6.95;72.08;102143.16;108370;1251;61410;-90
2023/01/23 07:26:28;;;;;;;36.50;13.40;;;;;;;7.11;71.80;102144.20;108588;1251;74198;-90
2023/01/23 07:28:57;;;;;;;31.80;14.60;;;;;;;7.19;72.29;102142.00;108352;1251;70116;-90
2023/01/23 07:31:27;;;;;;;28.20;13.70;;;;;;;7.19;72.01;102146.89;108419;1253;72894;-90
2023/01/23 07:33:54;;;;;;;43.30;17.40;;;;;;;7.41;71.36;102146.90;108354;1251;63511;-89
2023/01/23 07:36:23;;;;;;;108.40;34.40;;;;;;;7.67;70.44;102147.44;108559;1251;60916;-91
2023/01/23 07:38:52;;;;;;;60.30;19.90;;;;;;;7.56;70.84;102148.95;108509;1254;73870;-91
2023/01/23 07:41:21;;;;;;;46.00;16.20;;;;;;;7.40;71.38;102150.56;108325;1251;72739;-91
2023/01/23 07:43:48;;;;;;;27.20;12.70;;;;;;;7.32;71.72;102151.89;108409;1251;73385;-90
2023/01/23 07:46:15;;;;;;;32.20;13.80;;;;;;;7.35;71.72;102156.11;108544;1251;63270;-91
2023/01/23 07:48:42;;;;;;;31.50;15.20;;;;;;;7.22;72.21;102161.23;108295;1251;61043;-90
2023/01/23 07:51:10;;;;;;;32.10;13.10;;;;;;;7.33;72.04;102160.98;108832;1251;75124;-91
2023/01/23 07:53:43;;;;;;;24.00;11.70;;;;;;;7.53;71.24;102163.78;109577;1251;68729;-89
2023/01/23 07:56:09;;;;;;;25.40;12.60;;;;;;;7.18;71.80;102164.00;109642;1251;73750;-91
2023/01/23 07:58:36;;;;;;;29.10;12.10;;;;;;;7.29;71.74;102166.88;109629;1251;62272;-89
2023/01/23 08:01:10;;;;;;;26.50;14.30;;;;;;;7.40;71.09;102162.45;109510;1251;58804;-91
2023/01/23 08:03:39;;;;;;;150.80;59.70;;;;;;;7.64;70.47;102169.98;108945;1251;73936;-91
2023/01/23 08:06:06;;;;;;;74.20;30.20;;;;;;;7.71;70.07;102171.25;108286;1253;71263;-91
2023/01/23 08:08:35;;;;;;;37.60;15.90;;;;;;;7.79;70.32;102172.19;108425;1253;73622;-91
2023/01/23 08:11:06;;;;;;;30.60;12.40;;;;;;;7.77;70.26;102174.28;108691;1254;61165;-90
2023/01/23 08:13:48;;;;;;;26.20;10.90;;;;;;;7.55;70.77;102176.89;108383;1256;60895;-91
2023/01/23 08:16:18;;;;;;;29.70;12.40;;;;;;;7.45;71.42;102179.10;108294;1251;75460;-90
2023/01/23 08:18:47;;;;;;;29.60;12.10;;;;;;;7.73;70.26;102179.66;108400;1251;72753;-90
2023/01/23 08:21:16;;;;;;;22.00;10.50;;;;;;;8.06;69.57;102182.88;108594;1253;73956;-89
2023/01/23 08:23:45;;;;;;;26.20;12.30;;;;;;;8.34;68.66;102185.31;108341;1253;62273;-90
2023/01/23 08:26:14;;;;;;;20.40;9.70;;;;;;;7.85;69.34;102189.90;108268;1252;61381;-91
2023/01/23 08:28:41;;;;;;;21.90;10.10;;;;;;;7.73;70.31;102187.71;108363;1251;72517;-91
2023/01/23 08:31:10;;;;;;;22.20;10.40;;;;;;;7.86;69.90;102190.60;108487;1251;71939;-89
2023/01/23 08:33:37;;;;;;;39.20;18.20;;;;;;;7.85;69.64;102190.42;108398;1253;72380;-90
2023/01/23 08:36:05;;;;;;;64.90;31.80;;;;;;;7.59;70.41;102192.67;108379;1252;62010;-90
2023/01/23 08:38:32;;;;;;;28.10;12.70;;;;;;;7.80;69.87;102188.45;108486;1251;60270;-90
2023/01/23 08:41:00;;;;;;;26.00;11.80;;;;;;;7.98;69.53;102182.65;108261;1251;76020;-91
2023/01/23 08:43:27;;;;;;;20.60;10.00;;;;;;;8.00;69.26;102188.44;108251;1251;72301;-90
2023/01/23 08:45:55;;;;;;;63.60;25.00;;;;;;;7.82;69.38;102184.45;108165;1251;74675;-91
2023/01/23 08:48:23;;;;;;;116.90;36.00;;;;;;;8.06;68.48;102186.36;108370;1254;63474;-90
2023/01/23 08:50:59;;;;;;;49.70;18.90;;;;;;;8.20;67.70;102186.45;108194;1254;62685;-88
2023/01/23 08:53:27;;;;;;;43.30;16.90;;;;;;;8.08;67.59;102185.15;108312;1253;75004;-89
2023/01/23 08:55:59;;;;;;;35.60;14.70;;;;;;;7.83;68.28;102186.56;108361;1254;71388;-89
2023/01/23 08:58:27;;;;;;;34.30;14.20;;;;;;;7.73;68.64;102184.92;108310;1253;74817;-90
2023/01/23 09:00:54;;;;;;;29.80;13.90;;;;;;;7.94;68.40;102184.54;108360;1253;63070;-90
2023/01/23 09:03:21;;;;;;;25.40;11.70;;;;;;;7.85;68.29;102185.70;108439;1256;60421;-90
2023/01/23 09:05:48;;;;;;;35.00;15.90;;;;;;;7.77;68.35;102182.50;108485;1252;75755;-90
2023/01/23 09:08:52;;;;;;;69.30;32.60;;;;;;;6.67;72.62;102187.05;105155;1290;600571;-91
2023/01/23 09:11:22;;;;;;;98.40;48.60;;;;;;;7.51;69.86;102186.14;107830;1265;58998;-89
2023/01/23 09:13:49;;;;;;;41.60;19.30;;;;;;;7.76;69.01;102182.14;107850;1266;61436;-88
2023/01/23 09:16:20;;;;;;;39.40;16.10;;;;;;;7.79;68.85;102180.07;107398;1267;72462;-89
2023/01/23 09:18:49;;;;;;;28.90;13.60;;;;;;;7.80;68.83;102181.98;107380;1266;72223;-90
2023/01/23 09:21:16;;;;;;;35.50;14.90;;;;;;;7.96;68.08;102186.48;107442;1266;74958;-89
2023/01/23 09:23:43;;;;;;;35.90;13.50;;;;;;;8.00;67.38;102186.15;107639;1258;60303;-89
2023/01/23 09:26:12;;;;;;;25.40;12.10;;;;;;;7.94;66.75;102184.01;107758;1258;61435;-89
2023/01/23 09:28:41;;;;;;;26.70;12.70;;;;;;;8.03;66.21;102186.36;107880;1257;73936;-89
2023/01/23 09:31:12;;;;;;;26.30;12.20;;;;;;;7.91;66.07;102186.96;107692;1257;70890;-90
2023/01/23 09:33:39;;;;;;;26.40;12.90;;;;;;;7.90;66.17;102185.03;108014;1257;72278;-90
2023/01/23 09:36:07;;;;;;;27.50;12.80;;;;;;;7.98;65.63;102184.92;107972;1257;61052;-90
2023/01/23 09:38:34;;;;;;;31.40;13.60;;;;;;;8.17;65.03;102180.66;107915;1262;61234;-90
2023/01/23 09:41:16;;;;;;;27.70;13.20;;;;;;;8.21;65.04;102182.08;108049;1256;71406;-90
2023/01/23 09:43:49;;;;;;;32.10;14.20;;;;;;;7.96;65.49;102177.91;107747;1257;71483;-90
2023/01/23 09:46:20;;;;;;;25.70;12.30;;;;;;;7.92;65.83;102177.52;107968;1262;72167;-91
2023/01/23 09:49:08;;;;;;;37.90;14.80;;;;;;;7.99;65.90;102182.30;107898;1257;63023;-89
2023/01/23 09:51:47;;;;;;;35.00;14.00;;;;;;;7.79;66.53;102181.98;107926;1257;60751;-90
2023/01/23 09:54:35;;;;;;;33.70;16.20;;;;;;;7.58;67.35;102183.92;107947;1257;75078;-90
2023/01/23 14:05:16;;;;;;;41.90;17.80;;;;;;;5.09;100.00;102164.75;106749;1271;176951;-64
2023/01/23 14:08:02;;;;;;;50.10;17.00;;;;;;;5.22;100.00;102158.52;106768;1273;61189;-64
2023/01/23 14:10:47;;;;;;;46.60;17.20;;;;;;;5.52;100.00;102164.10;106042;1280;72846;-65
2023/01/23 14:13:29;;;;;;;42.40;17.90;;;;;;;5.64;100.00;102165.52;105487;1285;70966;-65
2023/01/23 14:16:12;;;;;;;35.00;14.90;;;;;;;5.76;100.00;102158.89;105075;1293;73826;-65
2023/01/23 14:18:59;;;;;;;44.60;19.60;;;;;;;5.92;100.00;102163.00;104833;1292;62329;-65
2023/01/23 14:21:59;;;;;;;34.30;15.30;;;;;;;6.14;100.00;102162.79;104353;1298;59317;-64
2023/01/23 14:24:47;;;;;;;32.20;13.30;;;;;;;6.24;100.00;102165.38;104955;1294;74185;-63
2023/01/23 14:27:32;;;;;;;33.40;14.90;;;;;;;6.24;100.00;102163.28;105035;1290;70294;-61
2023/01/23 14:30:25;;;;;;;40.70;17.00;;;;;;;6.37;100.00;102160.66;105396;1286;74624;-64
2023/01/23 14:32:52;;;;;;;33.30;15.70;;;;;;;6.36;100.00;102160.46;105510;1287;62038;-65
2023/01/23 14:35:24;;;;;;;43.10;16.20;;;;;;;6.18;100.00;102159.52;105708;1278;61384;-63
2023/01/23 14:37:52;;;;;;;32.10;15.10;;;;;;;6.25;100.00;102159.98;106339;1273;74215;-64
2023/01/23 14:40:20;;;;;;;42.70;15.90;;;;;;;6.42;100.00;102160.02;106768;1270;71449;-65
2023/01/23 14:43:06;;;;;;;35.60;16.40;;;;;;;6.47;100.00;102159.90;107256;1260;72470;-65
2023/01/23 14:45:33;;;;;;;36.90;15.20;;;;;;;6.48;100.00;102166.02;107703;1263;60908;-65
2023/01/23 14:48:00;;;;;;;34.60;13.90;;;;;;;6.77;100.00;102164.80;108086;1254;61634;-64
2023/01/23 14:50:35;;;;;;;53.40;20.30;;;;;;;6.68;100.00;102165.23;108054;1254;73321;-64
2023/01/23 14:53:10;;;;;;;42.60;16.60;;;;;;;6.54;100.00;102167.32;107951;1256;70390;-64
2023/01/23 14:55:39;;;;;;;37.40;15.70;;;;;;;6.43;100.00;102166.13;108001;1255;73456;-64
2023/01/23 14:58:06;;;;;;;50.40;18.50;;;;;;;6.59;100.00;102162.32;107971;1256;61208;-66
2023/01/23 15:00:33;;;;;;;43.00;17.50;;;;;;;6.77;100.00;102160.27;107948;1255;61341;-65
2023/01/23 15:03:03;;;;;;;44.50;18.50;;;;;;;7.00;100.00;102162.25;108047;1257;72363;-64
2023/01/23 15:05:31;;;;;;;115.90;35.10;;;;;;;7.07;100.00;102161.80;108045;1256;68710;-65
2023/01/23 15:08:23;;;;;;;51.80;20.00;;;;;;;7.01;100.00;102161.55;107908;1257;73373;-65
2023/01/23 15:10:49;;;;;;;62.40;22.00;;;;;;;6.99;97.34;102161.02;107961;1256;60808;-65
2023/01/23 15:13:24;;;;;;;53.80;20.80;;;;;;;7.11;90.41;102165.16;107700;1256;61620;-64
2023/01/23 15:16:00;;;;;;;52.90;21.80;;;;;;;7.16;89.40;102166.06;107975;1256;74246;-64
2023/01/23 15:18:36;;;;;;;52.70;21.10;;;;;;;7.30;75.95;102170.58;107993;1256;71541;-65
2023/01/23 15:21:07;;;;;;;63.00;24.30;;;;;;;7.31;74.68;102170.75;107985;1256;71819;-64
2023/01/23 15:23:36;;;;;;;57.40;21.80;;;;;;;7.33;74.26;102173.91;107984;1255;61371;-65
2023/01/23 15:26:18;;;;;;;57.10;21.30;;;;;;;7.38;73.99;102173.79;108019;1256;60113;-65
2023/01/23 15:29:16;;;;;;;57.20;21.70;;;;;;;7.60;73.35;102177.66;107897;1256;73943;-65
2023/01/23 15:31:50;;;;;;;69.40;23.70;;;;;;;7.77;72.11;102177.77;107944;1256;71512;-65
2023/01/23 15:34:19;;;;;;;51.30;20.30;;;;;;;7.19;73.19;102179.91;107908;1255;72270;-65
2023/01/23 15:37:26;;;;;;;52.90;20.50;;;;;;;7.32;73.18;102177.23;107929;1257;62192;-66
2023/01/23 15:40:03;;;;;;;56.40;23.10;;;;;;;7.15;73.38;102179.86;107438;1261;59910;-65
2023/01/23 15:42:31;;;;;;;51.30;21.10;;;;;;;7.39;72.69;102181.66;107421;1262;72132;-65
2023/01/23 15:45:02;;;;;;;74.00;31.50;;;;;;;7.50;72.29;102184.20;107760;1256;71437;-65
2023/01/23 15:47:30;;;;;;;63.40;25.90;;;;;;;7.49;71.45;102182.98;107952;1258;71390;-64
2023/01/23 15:50:01;;;;;;;62.30;24.00;;;;;;;7.52;71.63;102184.91;107932;1256;59710;-65
2023/01/23 15:52:30;;;;;;;64.20;23.70;;;;;;;7.40;72.04;102183.59;108006;1256;60428;-65
2023/01/23 15:55:03;;;;;;;75.00;26.20;;;;;;;7.35;72.13;102188.61;107945;1255;72629;-66
2023/01/23 15:57:30;;;;;;;63.30;25.90;;;;;;;7.32;72.10;102191.02;107905;1256;71409;-65
2023/01/23 15:59:59;;;;;;;62.70;26.70;;;;;;;7.29;72.14;102188.55;107945;1256;73701;-66
2023/01/23 16:02:26;;;;;;;63.20;24.50;;;;;;;7.21;71.66;102189.70;107948;1256;60092;-65
2023/01/23 16:05:01;;;;;;;59.10;24.10;;;;;;;7.33;71.41;102189.64;107945;1257;61132;-65
2023/01/23 16:07:33;;;;;;;59.30;23.70;;;;;;;7.33;71.50;102189.46;107959;1255;74086;-67
2023/01/23 16:10:01;;;;;;;60.20;24.20;;;;;;;7.47;71.10;102188.88;107931;1257;71201;-65
2023/01/23 16:12:29;;;;;;;74.60;31.60;;;;;;;7.24;71.66;102193.23;107918;1256;72779;-65
2023/01/23 16:14:56;;;;;;;77.00;31.90;;;;;;;6.99;72.50;102192.11;107921;1255;59991;-66
2023/01/23 16:17:23;;;;;;;66.10;27.80;;;;;;;7.09;72.76;102190.11;107960;1258;59573;-66
2023/01/23 16:19:51;;;;;;;66.70;27.40;;;;;;;7.25;71.77;102186.59;107944;1259;73152;-65
2023/01/23 16:22:27;;;;;;;61.70;26.00;;;;;;;7.04;72.30;102190.40;107938;1256;70973;-66
2023/01/23 16:24:55;;;;;;;64.30;26.90;;;;;;;6.85;73.32;102186.19;107898;1256;71674;-66
2023/01/23 16:27:26;;;;;;;56.60;23.70;;;;;;;7.03;72.71;102187.42;107859;1255;61262;-67
2023/01/23 16:29:53;;;;;;;65.00;26.10;;;;;;;6.95;72.52;102191.02;107933;1256;60081;-65
2023/01/23 16:32:20;;;;;;;70.40;27.80;;;;;;;6.99;72.14;102192.11;108020;1256;72591;-65
2023/01/23 16:34:48;;;;;;;57.00;24.60;;;;;;;7.22;71.40;102192.86;107955;1256;69615;-65
2023/01/23 16:37:15;;;;;;;69.00;28.40;;;;;;;7.19;71.56;102191.61;107921;1258;72689;-66
2023/01/23 16:39:45;;;;;;;68.30;29.50;;;;;;;7.28;71.38;102190.64;107951;1254;60988;-63
2023/01/23 16:42:21;;;;;;;66.90;28.30;;;;;;;7.23;71.70;102191.65;107857;1256;59728;-66
2023/01/23 16:44:49;;;;;;;69.50;28.50;;;;;;;7.07;72.03;102195.16;107972;1256;70986;-65
2023/01/23 16:47:16;;;;;;;64.70;27.40;;;;;;;6.97;72.23;102201.34;107995;1258;70204;-64
2023/01/23 16:49:43;;;;;;;68.50;27.80;;;;;;;7.07;72.22;102200.75;107926;1256;74747;-65
2023/01/23 16:52:19;;;;;;;62.50;27.70;;;;;;;6.84;72.61;102206.61;107909;1258;62221;-64
2023/01/23 16:54:46;;;;;;;66.10;28.20;;;;;;;6.96;72.21;102208.66;108028;1256;61487;-65
2023/01/23 16:57:17;;;;;;;67.70;27.80;;;;;;;7.13;71.73;102206.76;107910;1256;73684;-65
2023/01/23 16:59:44;;;;;;;73.80;29.70;;;;;;;6.72;72.74;102207.50;107919;1255;69741;-65
2023/01/23 17:02:28;;;;;;;64.70;25.50;;;;;;;6.48;74.28;102209.29;107698;1261;72059;-67
2023/01/23 17:04:56;;;;;;;76.90;28.60;;;;;;;6.64;73.66;102207.59;108016;1258;60998;-64
2023/01/23 17:07:23;;;;;;;63.60;27.70;;;;;;;6.36;74.42;102208.44;107955;1255;60427;-64
2023/01/23 17:09:51;;;;;;;75.10;28.60;;;;;;;6.32;74.70;102210.14;108024;1258;73032;-66
2023/01/23 17:12:23;;;;;;;71.10;28.80;;;;;;;6.32;75.04;102213.63;107971;1258;71222;-65
2023/01/23 17:14:51;;;;;;;77.60;29.70;;;;;;;6.36;74.88;102212.45;107967;1256;72550;-66
2023/01/23 17:17:28;;;;;;;77.30;30.30;;;;;;;6.48;74.77;102216.45;107905;1257;61062;-65
2023/01/23 17:19:56;;;;;;;62.10;26.30;;;;;;;6.50;74.40;102220.14;108019;1258;59494;-65
2023/01/23 17:22:25;;;;;;;64.10;25.80;;;;;;;6.52;74.98;102222.08;108045;1254;73034;-65
2023/01/23 17:24:52;;;;;;;59.50;25.60;;;;;;;6.76;74.06;102216.83;108000;1256;69946;-65
2023/01/23 17:27:19;;;;;;;64.40;25.80;;;;;;;7.01;73.42;102215.35;107916;1258;72714;-66
2023/01/23 17:29:46;;;;;;;64.70;24.70;;;;;;;6.62;74.14;102220.11;107974;1258;61167;-65
2023/01/23 17:32:34;;;;;;;65.80;26.90;;;;;;;6.23;76.05;102223.42;107993;1258;60311;-65
2023/01/23 17:35:07;;;;;;;58.80;24.30;;;;;;;6.15;76.51;102224.20;107978;1255;73810;-66
2023/01/23 17:38:14;;;;;;;63.60;26.10;;;;;;;6.92;74.28;102219.77;107905;1256;71456;-65
2023/01/23 17:40:41;;;;;;;65.70;27.10;;;;;;;7.09;72.70;102217.17;107981;1256;72162;-64
2023/01/23 21:55:51;;;;;;;50.00;21.40;;;;;;;-0.26;100.00;102199.42;104723;1292;600341;-89
2023/01/23 21:58:20;;;;;;;42.80;19.80;;;;;;;1.90;100.00;102196.42;107279;1266;61939;-90